sensor_id;sensor_type;location;lat;lon;timestamp;pressure;altitude;pressure_sealevel;temperature;humidity
27685;BME280;46113;50.130;8.526;2023-04-04T04:03:36;100113.72;;;-5.08;61.69
27685;BME280;46113;50.130;8.526;2023-04-04T04:06:03;100123.16;;;-5.09;61.32
27685;BME280;46113;50.130;8.526;2023-04-04T04:08:31;100121.34;;;-5.13;60.49
27685;BME280;46113;50.130;8.526;2023-04-04T04:11:03;100124.75;;;-5.16;61.20
27685;BME280;46113;50.130;8.526;2023-04-04T04:13:31;100122.28;;;-5.11;61.13
27685;BME280;46113;50.130;8.526;2023-04-04T04:16:00;100122.16;;;-5.17;60.98
27685;BME280;46113;50.130;8.526;2023-04-04T04:18:27;100117.84;;;-5.17;60.85
27685;BME280;46113;50.130;8.526;2023-04-04T04:20:56;100121.28;;;-5.18;60.63
27685;BME280;46113;50.130;8.526;2023-04-04T04:23:25;100114.22;;;-5.27;60.63
27685;BME280;46113;50.130;8.526;2023-04-04T04:25:52;100113.41;;;-5.24;61.11
27685;BME280;46113;50.130;8.526;2023-04-04T04:28:22;100113.38;;;-5.25;61.52
27685;BME280;46113;50.130;8.526;2023-04-04T04:31:08;100113.19;;;-5.35;60.92
27685;BME280;46113;50.130;8.526;2023-04-04T04:33:45;100109.81;;;-5.72;62.07
27685;BME280;46113;50.130;8.526;2023-04-04T04:36:12;100104.28;;;-5.49;61.63
27685;BME280;46113;50.130;8.526;2023-04-04T04:38:47;100113.31;;;-5.69;62.04
27685;BME280;46113;50.130;8.526;2023-04-04T04:41:15;100118.84;;;-5.51;61.10
27685;BME280;46113;50.130;8.526;2023-04-04T04:43:45;100109.38;;;-5.52;61.37
27685;BME280;46113;50.130;8.526;2023-04-04T04:46:13;100110.41;;;-5.44;60.80
27685;BME280;46113;50.130;8.526;2023-04-04T04:48:40;100111.97;;;-5.52;61.65
27685;BME280;46113;50.130;8.526;2023-04-04T04:51:11;100115.59;;;-5.43;60.96
27685;BME280;46113;50.130;8.526;2023-04-04T04:53:46;100116.44;;;-5.44;61.01
27685;BME280;46113;50.130;8.526;2023-04-04T04:56:15;100119.03;;;-5.44;61.25
27685;BME280;46113;50.130;8.526;2023-04-04T04:58:44;100116.56;;;-5.37;60.85
27685;BME280;46113;50.130;8.526;2023-04-04T05:01:19;100127.66;;;-5.42;61.25
27685;BME280;46113;50.130;8.526;2023-04-04T05:03:46;100127.00;;;-5.33;60.51
27685;BME280;46113;50.130;8.526;2023-04-04T05:06:18;100127.81;;;-5.35;61.50
27685;BME280;46113;50.130;8.526;2023-04-04T05:08:45;100130.34;;;-5.37;60.94
27685;BME280;46113;50.130;8.526;2023-04-04T05:11:22;100123.69;;;-5.25;61.38
27685;BME280;46113;50.130;8.526;2023-04-04T05:13:48;100123.84;;;-5.18;60.87
27685;BME280;46113;50.130;8.526;2023-04-04T05:16:15;100134.25;;;-5.15;60.91
27685;BME280;46113;50.130;8.526;2023-04-04T05:18:45;100135.16;;;-5.12;61.25
27685;BME280;46113;50.130;8.526;2023-04-04T05:21:12;100130.91;;;-5.09;61.02
27685;BME280;46113;50.130;8.526;2023-04-04T05:23:43;100131.75;;;-5.10;61.35
27685;BME280;46113;50.130;8.526;2023-04-04T05:26:12;100131.13;;;-4.98;61.49
27685;BME280;46113;50.130;8.526;2023-04-04T05:28:39;100129.56;;;-4.91;61.10
27685;BME280;46113;50.130;8.526;2023-04-04T05:31:06;100123.69;;;-4.82;60.36
27685;BME280;46113;50.130;8.526;2023-04-04T05:33:34;100121.19;;;-4.78;61.11
27685;BME280;46113;50.130;8.526;2023-04-04T05:36:16;100127.19;;;-4.79;60.51
27685;BME280;46113;50.130;8.526;2023-04-04T05:38:48;100125.78;;;-4.63;60.39
27685;BME280;46113;50.130;8.526;2023-04-04T05:41:18;100129.50;;;-4.48;60.65
27685;BME280;46113;50.130;8.526;2023-04-04T05:43:46;100134.09;;;-4.31;59.95
27685;BME280;46113;50.130;8.526;2023-04-04T05:46:16;100128.91;;;-4.31;59.85
27685;BME280;46113;50.130;8.526;2023-04-04T05:48:48;100125.75;;;-4.13;59.23
27685;BME280;46113;50.130;8.526;2023-04-04T05:51:16;100130.25;;;-4.01;58.95
27685;BME280;46113;50.130;8.526;2023-04-04T05:53:50;100126.94;;;-3.92;57.50
27685;BME280;46113;50.130;8.526;2023-04-04T05:56:22;100134.94;;;-3.77;57.26
27685;BME280;46113;50.130;8.526;2023-04-04T05:58:51;100134.72;;;-3.92;57.14
27685;BME280;46113;50.130;8.526;2023-04-04T08:46:08;100125.59;;;2.92;36.33
27685;BME280;46113;50.130;8.526;2023-04-04T08:48:38;100127.88;;;3.17;36.27
27685;BME280;46113;50.130;8.526;2023-04-04T08:51:08;100125.81;;;2.70;35.10
27685;BME280;46113;50.130;8.526;2023-04-04T08:53:36;100121.25;;;2.91;34.54
27685;BME280;46113;50.130;8.526;2023-04-04T08:56:04;100120.28;;;2.97;35.08
27685;BME280;46113;50.130;8.526;2023-04-04T08:58:30;100124.59;;;2.99;36.28
27685;BME280;46113;50.130;8.526;2023-04-04T09:00:57;100120.16;;;3.07;34.53
27685;BME280;46113;50.130;8.526;2023-04-04T09:03:28;100120.81;;;2.50;35.15
27685;BME280;46113;50.130;8.526;2023-04-04T09:05:58;100131.84;;;2.78;37.01
27685;BME280;46113;50.130;8.526;2023-04-04T09:08:25;100125.81;;;2.70;36.19
27685;BME280;46113;50.130;8.526;2023-04-04T09:10:52;100121.47;;;2.69;35.40
27685;BME280;46113;50.130;8.526;2023-04-04T09:13:19;100118.44;;;3.06;35.89
27685;BME280;46113;50.130;8.526;2023-04-04T09:15:47;100105.97;;;3.26;36.38
27685;BME280;46113;50.130;8.526;2023-04-04T09:18:15;100111.19;;;3.26;35.26
27685;BME280;46113;50.130;8.526;2023-04-04T09:20:45;100109.41;;;3.29;35.52
27685;BME280;46113;50.130;8.526;2023-04-04T09:23:17;100106.41;;;2.93;35.28
27685;BME280;46113;50.130;8.526;2023-04-04T09:25:53;100108.69;;;3.18;35.95
27685;BME280;46113;50.130;8.526;2023-04-04T09:28:22;100101.66;;;3.23;33.42
27685;BME280;46113;50.130;8.526;2023-04-04T09:30:51;100100.78;;;3.23;34.43
27685;BME280;46113;50.130;8.526;2023-04-04T09:33:19;100112.25;;;3.12;35.00
27685;BME280;46113;50.130;8.526;2023-04-04T09:35:55;100103.50;;;3.13;36.66
27685;BME280;46113;50.130;8.526;2023-04-04T09:38:27;100110.72;;;2.95;35.83
27685;BME280;46113;50.130;8.526;2023-04-04T09:40:55;100102.38;;;3.33;36.12
27685;BME280;46113;50.130;8.526;2023-04-04T09:43:23;100093.50;;;3.43;34.71
27685;BME280;46113;50.130;8.526;2023-04-04T09:45:50;100087.31;;;3.51;34.91
27685;BME280;46113;50.130;8.526;2023-04-04T09:48:30;100099.38;;;2.95;35.34
27685;BME280;46113;50.130;8.526;2023-04-04T09:51:08;100100.13;;;3.06;34.79
27685;BME280;46113;50.130;8.526;2023-04-04T09:53:38;100095.25;;;2.78;34.69
27685;BME280;46113;50.130;8.526;2023-04-04T09:56:07;100102.38;;;2.62;35.13
27685;BME280;46113;50.130;8.526;2023-04-04T09:58:34;100098.81;;;2.71;35.03
27685;BME280;46113;50.130;8.526;2023-04-04T10:01:06;100092.78;;;2.66;35.01
27685;BME280;46113;50.130;8.526;2023-04-04T10:03:35;100093.44;;;2.84;34.45
27685;BME280;46113;50.130;8.526;2023-04-04T10:06:13;100095.44;;;2.60;35.29
27685;BME280;46113;50.130;8.526;2023-04-04T10:08:40;100099.84;;;2.56;35.99
27685;BME280;46113;50.130;8.526;2023-04-04T10:11:09;100095.31;;;2.72;35.77
27685;BME280;46113;50.130;8.526;2023-04-04T10:13:38;100096.47;;;3.18;35.55
27685;BME280;46113;50.130;8.526;2023-04-04T10:16:12;100092.22;;;3.10;35.04
27685;BME280;46113;50.130;8.526;2023-04-04T10:18:39;100079.84;;;3.23;34.47
27685;BME280;46113;50.130;8.526;2023-04-04T10:21:06;100074.38;;;3.38;36.06
27685;BME280;46113;50.130;8.526;2023-04-04T10:23:37;100086.38;;;2.93;35.14
27685;BME280;46113;50.130;8.526;2023-04-04T10:26:06;100086.06;;;3.15;35.06
27685;BME280;46113;50.130;8.526;2023-04-04T10:28:33;100081.56;;;3.25;34.90
27685;BME280;46113;50.130;8.526;2023-04-04T10:31:19;100077.28;;;3.21;34.54
27685;BME280;46113;50.130;8.526;2023-04-04T10:34:06;100089.03;;;3.50;33.93
27685;BME280;46113;50.130;8.526;2023-04-04T10:36:42;100095.84;;;3.01;34.41
27685;BME280;46113;50.130;8.526;2023-04-04T10:39:17;100094.00;;;3.07;33.80
27685;BME280;46113;50.130;8.526;2023-04-04T10:41:49;100079.94;;;3.18;32.25
27685;BME280;46113;50.130;8.526;2023-04-04T10:44:38;100091.50;;;3.01;34.02
27685;BME280;46113;50.130;8.526;2023-04-04T10:49:45;100075.19;;;2.80;35.00
27685;BME280;46113;50.130;8.526;2023-04-04T10:52:15;100084.56;;;2.97;35.58
27685;BME280;46113;50.130;8.526;2023-04-04T10:54:42;100079.69;;;3.35;35.64
27685;BME280;46113;50.130;8.526;2023-04-04T10:57:11;100071.41;;;3.02;34.57
27685;BME280;46113;50.130;8.526;2023-04-04T10:59:56;100065.50;;;3.53;35.23
27685;BME280;46113;50.130;8.526;2023-04-04T11:02:59;100060.75;;;3.77;33.55
27685;BME280;46113;50.130;8.526;2023-04-04T11:05:37;100050.53;;;3.62;34.30
27685;BME280;46113;50.130;8.526;2023-04-04T11:08:10;100051.88;;;3.86;32.75
27685;BME280;46113;50.130;8.526;2023-04-04T11:10:43;100047.06;;;3.59;32.91
27685;BME280;46113;50.130;8.526;2023-04-04T11:13:15;100042.47;;;3.74;33.26
27685;BME280;46113;50.130;8.526;2023-04-04T11:15:52;100047.28;;;3.44;33.52
27685;BME280;46113;50.130;8.526;2023-04-04T11:18:22;100041.03;;;3.51;33.58
27685;BME280;46113;50.130;8.526;2023-04-04T11:26:33;100035.63;;;3.67;33.18
27685;BME280;46113;50.130;8.526;2023-04-04T11:29:04;100026.22;;;3.52;34.14
27685;BME280;46113;50.130;8.526;2023-04-04T11:31:43;100024.31;;;4.13;34.12
27685;BME280;46113;50.130;8.526;2023-04-04T11:34:12;100019.97;;;3.64;35.30
27685;BME280;46113;50.130;8.526;2023-04-04T11:39:07;100007.53;;;4.24;34.03
27685;BME280;46113;50.130;8.526;2023-04-04T11:41:51;100015.56;;;4.14;35.13
27685;BME280;46113;50.130;8.526;2023-04-04T11:44:19;100002.72;;;4.02;33.43
27685;BME280;46113;50.130;8.526;2023-04-04T11:47:09;99997.50;;;4.02;33.50
27685;BME280;46113;50.130;8.526;2023-04-04T11:49:41;99982.81;;;3.92;34.31
27685;BME280;46113;50.130;8.526;2023-04-04T11:52:13;99993.06;;;3.54;34.07
27685;BME280;46113;50.130;8.526;2023-04-04T11:54:41;99997.69;;;3.90;34.05
27685;BME280;46113;50.130;8.526;2023-04-04T11:57:19;99995.09;;;3.34;33.98
27685;BME280;46113;50.130;8.526;2023-04-04T11:59:48;99985.19;;;3.57;34.08
27685;BME280;46113;50.130;8.526;2023-04-04T12:02:18;99981.75;;;3.53;35.18
27685;BME280;46113;50.130;8.526;2023-04-04T12:04:46;99974.56;;;3.66;34.56
27685;BME280;46113;50.130;8.526;2023-04-04T12:07:13;99971.22;;;3.56;34.91
27685;BME280;46113;50.130;8.526;2023-04-04T12:09:43;99970.47;;;3.50;34.27
27685;BME280;46113;50.130;8.526;2023-04-04T12:12:13;99974.59;;;3.63;34.36
27685;BME280;46113;50.130;8.526;2023-04-04T12:14:42;99971.19;;;3.58;34.15
27685;BME280;46113;50.130;8.526;2023-04-04T12:17:09;99971.06;;;3.66;33.85
27685;BME280;46113;50.130;8.526;2023-04-04T12:19:37;99972.25;;;3.46;34.38
27685;BME280;46113;50.130;8.526;2023-04-04T12:22:04;99959.00;;;3.58;34.14
27685;BME280;46113;50.130;8.526;2023-04-04T12:24:31;99963.75;;;3.85;35.05
27685;BME280;46113;50.130;8.526;2023-04-04T12:26:58;99963.94;;;3.76;35.23
27685;BME280;46113;50.130;8.526;2023-04-04T12:29:25;99966.72;;;3.66;35.56
27685;BME280;46113;50.130;8.526;2023-04-04T12:31:54;99964.88;;;3.71;35.17
27685;BME280;46113;50.130;8.526;2023-04-04T12:34:22;99966.81;;;3.62;35.47
27685;BME280;46113;50.130;8.526;2023-04-04T12:36:56;99957.06;;;3.68;35.17
27685;BME280;46113;50.130;8.526;2023-04-04T12:39:28;99960.22;;;3.87;35.02
27685;BME280;46113;50.130;8.526;2023-04-04T12:42:02;99962.91;;;3.83;35.21
27685;BME280;46113;50.130;8.526;2023-04-04T12:44:30;99962.25;;;3.71;34.66
27685;BME280;46113;50.130;8.526;2023-04-04T12:46:59;99953.25;;;3.86;34.90
27685;BME280;46113;50.130;8.526;2023-04-04T12:49:28;99949.28;;;4.11;34.71
27685;BME280;46113;50.130;8.526;2023-04-04T12:51:55;99944.28;;;3.98;36.09
27685;BME280;46113;50.130;8.526;2023-04-04T12:54:27;99941.16;;;3.79;35.78
27685;BME280;46113;50.130;8.526;2023-04-04T12:56:55;99944.25;;;4.00;35.23
27685;BME280;46113;50.130;8.526;2023-04-04T12:59:28;99938.06;;;4.04;35.96
27685;BME280;46113;50.130;8.526;2023-04-04T13:01:55;99939.75;;;4.08;35.36
27685;BME280;46113;50.130;8.526;2023-04-04T13:04:22;99945.31;;;4.34;35.07
27685;BME280;46113;50.130;8.526;2023-04-04T13:06:50;99937.88;;;4.15;34.08
27685;BME280;46113;50.130;8.526;2023-04-04T13:09:22;99938.22;;;4.39;33.76
27685;BME280;46113;50.130;8.526;2023-04-04T13:12:04;99933.63;;;4.08;35.28
27685;BME280;46113;50.130;8.526;2023-04-04T13:15:02;99938.34;;;3.90;35.54
27685;BME280;46113;50.130;8.526;2023-04-04T13:17:43;99939.28;;;4.32;35.83
27685;BME280;46113;50.130;8.526;2023-04-04T13:20:12;99928.22;;;4.17;36.36
27685;BME280;46113;50.130;8.526;2023-04-04T13:22:39;99927.06;;;4.31;35.40
27685;BME280;46113;50.130;8.526;2023-04-04T13:25:07;99933.81;;;3.98;35.39
27685;BME280;46113;50.130;8.526;2023-04-04T13:27:35;99935.75;;;3.90;35.77
27685;BME280;46113;50.130;8.526;2023-04-04T13:30:02;99925.47;;;3.79;35.16
27685;BME280;46113;50.130;8.526;2023-04-04T13:32:29;99921.72;;;3.93;35.87
27685;BME280;46113;50.130;8.526;2023-04-04T13:34:56;99925.66;;;3.68;35.73
27685;BME280;46113;50.130;8.526;2023-04-04T13:37:23;99928.03;;;3.82;36.36
27685;BME280;46113;50.130;8.526;2023-04-04T13:39:50;99911.91;;;4.03;35.11
27685;BME280;46113;50.130;8.526;2023-04-04T13:42:17;99916.44;;;3.47;35.30
27685;BME280;46113;50.130;8.526;2023-04-04T13:44:43;99914.78;;;3.90;35.52
27685;BME280;46113;50.130;8.526;2023-04-04T13:47:10;99897.09;;;4.02;35.99
27685;BME280;46113;50.130;8.526;2023-04-04T13:49:36;99898.06;;;3.97;35.18
27685;BME280;46113;50.130;8.526;2023-04-04T13:52:03;99897.56;;;4.22;36.14
27685;BME280;46113;50.130;8.526;2023-04-04T13:54:30;99899.78;;;3.98;35.82
27685;BME280;46113;50.130;8.526;2023-04-04T13:56:56;99896.38;;;3.93;35.94
27685;BME280;46113;50.130;8.526;2023-04-04T13:59:23;99893.41;;;4.12;35.69
27685;BME280;46113;50.130;8.526;2023-04-04T14:01:50;99895.63;;;3.88;35.37
27685;BME280;46113;50.130;8.526;2023-04-04T14:04:17;99889.31;;;3.97;35.56
27685;BME280;46113;50.130;8.526;2023-04-04T14:06:49;99887.13;;;3.77;36.42
27685;BME280;46113;50.130;8.526;2023-04-04T14:09:16;99882.47;;;3.93;36.54
27685;BME280;46113;50.130;8.526;2023-04-04T14:11:44;99882.06;;;4.11;36.65
27685;BME280;46113;50.130;8.526;2023-04-04T14:14:11;99892.69;;;4.04;35.97
27685;BME280;46113;50.130;8.526;2023-04-04T14:16:38;99879.31;;;4.18;35.62
27685;BME280;46113;50.130;8.526;2023-04-04T14:19:04;99880.09;;;4.23;35.99
27685;BME280;46113;50.130;8.526;2023-04-04T14:21:32;99876.75;;;4.14;35.74
27685;BME280;46113;50.130;8.526;2023-04-04T14:23:58;99879.88;;;4.32;35.55
27685;BME280;46113;50.130;8.526;2023-04-04T14:26:25;99873.03;;;4.26;35.75
27685;BME280;46113;50.130;8.526;2023-04-04T14:28:52;99871.91;;;4.37;36.40
27685;BME280;46113;50.130;8.526;2023-04-04T14:31:18;99884.03;;;4.00;36.36
27685;BME280;46113;50.130;8.526;2023-04-04T14:33:45;99874.75;;;3.85;35.56
27685;BME280;46113;50.130;8.526;2023-04-04T14:36:12;99877.84;;;4.04;36.25
27685;BME280;46113;50.130;8.526;2023-04-04T14:38:38;99874.34;;;4.05;35.21
27685;BME280;46113;50.130;8.526;2023-04-04T14:41:05;99866.47;;;4.05;35.46
27685;BME280;46113;50.130;8.526;2023-04-04T14:43:31;99868.59;;;3.87;35.85
27685;BME280;46113;50.130;8.526;2023-04-04T14:45:58;99866.22;;;4.18;35.56
27685;BME280;46113;50.130;8.526;2023-04-04T14:48:24;99860.44;;;4.03;36.00
27685;BME280;46113;50.130;8.526;2023-04-04T14:50:51;99866.50;;;4.04;37.21
27685;BME280;46113;50.130;8.526;2023-04-04T14:53:18;99868.38;;;3.97;37.18
27685;BME280;46113;50.130;8.526;2023-04-04T14:55:44;99864.06;;;3.94;36.61
27685;BME280;46113;50.130;8.526;2023-04-04T14:58:11;99866.03;;;3.84;36.33
27685;BME280;46113;50.130;8.526;2023-04-04T15:00:38;99862.94;;;4.08;37.09
27685;BME280;46113;50.130;8.526;2023-04-04T15:03:05;99864.75;;;4.04;36.85
27685;BME280;46113;50.130;8.526;2023-04-04T15:05:33;99865.31;;;4.20;36.47
27685;BME280;46113;50.130;8.526;2023-04-04T15:08:00;99868.25;;;4.05;36.89
27685;BME280;46113;50.130;8.526;2023-04-04T15:10:26;99852.75;;;3.94;37.41
27685;BME280;46113;50.130;8.526;2023-04-04T15:12:53;99850.13;;;3.94;38.17
27685;BME280;46113;50.130;8.526;2023-04-04T15:15:20;99853.19;;;4.14;37.74
27685;BME280;46113;50.130;8.526;2023-04-04T15:17:50;99840.25;;;4.48;35.67
27685;BME280;46113;50.130;8.526;2023-04-04T15:20:16;99844.03;;;4.34;36.46
27685;BME280;46113;50.130;8.526;2023-04-04T15:22:43;99845.91;;;4.29;36.92
27685;BME280;46113;50.130;8.526;2023-04-04T15:25:10;99841.28;;;3.99;35.94
27685;BME280;46113;50.130;8.526;2023-04-04T15:27:36;99845.47;;;4.08;36.61
27685;BME280;46113;50.130;8.526;2023-04-04T15:30:04;99846.50;;;3.99;37.40
27685;BME280;46113;50.130;8.526;2023-04-04T15:32:30;99843.03;;;4.00;36.95
27685;BME280;46113;50.130;8.526;2023-04-04T15:34:57;99833.13;;;3.72;36.64
27685;BME280;46113;50.130;8.526;2023-04-04T15:37:24;99840.41;;;3.56;37.66
27685;BME280;46113;50.130;8.526;2023-04-04T15:39:51;99836.28;;;3.43;37.84
27685;BME280;46113;50.130;8.526;2023-04-04T15:42:19;99837.72;;;3.61;37.91
27685;BME280;46113;50.130;8.526;2023-04-04T15:44:46;99837.09;;;3.45;38.48
27685;BME280;46113;50.130;8.526;2023-04-04T15:47:15;99833.56;;;3.47;37.63
27685;BME280;46113;50.130;8.526;2023-04-04T15:49:41;99832.94;;;3.34;37.66
27685;BME280;46113;50.130;8.526;2023-04-04T15:52:08;99828.56;;;3.35;37.66
27685;BME280;46113;50.130;8.526;2023-04-04T15:54:35;99828.22;;;3.54;38.04
27685;BME280;46113;50.130;8.526;2023-04-04T15:57:01;99833.28;;;3.63;38.34
27685;BME280;46113;50.130;8.526;2023-04-04T15:59:28;99826.53;;;3.53;37.86
27685;BME280;46113;50.130;8.526;2023-04-04T16:01:57;99823.81;;;3.57;37.50
27685;BME280;46113;50.130;8.526;2023-04-04T16:04:23;99827.03;;;3.72;37.52
27685;BME280;46113;50.130;8.526;2023-04-04T16:06:50;99833.50;;;3.51;38.04
27685;BME280;46113;50.130;8.526;2023-04-04T16:09:16;99824.03;;;3.45;38.47
27685;BME280;46113;50.130;8.526;2023-04-04T16:11:43;99829.50;;;3.32;37.75
27685;BME280;46113;50.130;8.526;2023-04-04T16:14:10;99831.03;;;3.44;38.28
27685;BME280;46113;50.130;8.526;2023-04-04T16:16:37;99829.28;;;3.43;38.14
27685;BME280;46113;50.130;8.526;2023-04-04T16:19:05;99830.34;;;3.33;38.27
27685;BME280;46113;50.130;8.526;2023-04-04T16:21:32;99825.06;;;3.36;38.18
27685;BME280;46113;50.130;8.526;2023-04-04T16:23:59;99816.47;;;3.29;37.97
27685;BME280;46113;50.130;8.526;2023-04-04T16:26:26;99821.28;;;3.51;38.21
27685;BME280;46113;50.130;8.526;2023-04-04T16:28:52;99824.78;;;3.53;38.22
27685;BME280;46113;50.130;8.526;2023-04-04T16:31:19;99831.59;;;3.60;37.75
27685;BME280;46113;50.130;8.526;2023-04-04T16:33:46;99826.56;;;3.50;37.50
27685;BME280;46113;50.130;8.526;2023-04-04T16:36:13;99821.56;;;3.37;37.08
27685;BME280;46113;50.130;8.526;2023-04-04T16:38:39;99824.88;;;3.47;37.74
27685;BME280;46113;50.130;8.526;2023-04-04T16:41:06;99823.22;;;3.41;37.30
27685;BME280;46113;50.130;8.526;2023-04-04T16:43:32;99826.72;;;3.42;37.77
27685;BME280;46113;50.130;8.526;2023-04-04T16:45:59;99827.00;;;3.26;37.81
27685;BME280;46113;50.130;8.526;2023-04-04T16:48:25;99822.31;;;3.42;37.96
27685;BME280;46113;50.130;8.526;2023-04-04T16:50:53;99821.34;;;3.48;38.35
27685;BME280;46113;50.130;8.526;2023-04-04T16:53:19;99824.03;;;3.45;37.43
27685;BME280;46113;50.130;8.526;2023-04-04T16:55:46;99816.16;;;3.45;37.85
27685;BME280;46113;50.130;8.526;2023-04-04T16:58:13;99823.56;;;3.23;38.94
27685;BME280;46113;50.130;8.526;2023-04-04T17:00:39;99814.31;;;3.50;38.07
27685;BME280;46113;50.130;8.526;2023-04-04T17:03:12;99824.31;;;3.29;38.27
27685;BME280;46113;50.130;8.526;2023-04-04T17:05:38;99821.56;;;3.35;38.35
27685;BME280;46113;50.130;8.526;2023-04-04T17:08:05;99830.28;;;3.38;37.30
27685;BME280;46113;50.130;8.526;2023-04-04T17:10:33;99822.47;;;3.34;38.06
27685;BME280;46113;50.130;8.526;2023-04-04T17:12:59;99817.72;;;3.08;38.12
27685;BME280;46113;50.130;8.526;2023-04-04T17:15:27;99829.56;;;3.28;37.72
27685;BME280;46113;50.130;8.526;2023-04-04T17:17:53;99824.72;;;3.07;38.91
27685;BME280;46113;50.130;8.526;2023-04-04T17:20:20;99825.97;;;2.85;38.33
27685;BME280;46113;50.130;8.526;2023-04-04T17:23:24;99825.94;;;2.86;39.81
27685;BME280;46113;50.130;8.526;2023-04-04T17:25:54;99821.69;;;2.80;38.48
27685;BME280;46113;50.130;8.526;2023-04-04T17:28:21;99833.28;;;2.62;38.97
27685;BME280;46113;50.130;8.526;2023-04-04T17:30:48;99831.88;;;2.43;39.52
27685;BME280;46113;50.130;8.526;2023-04-04T17:33:14;99823.88;;;2.52;39.41
27685;BME280;46113;50.130;8.526;2023-04-04T17:35:41;99836.28;;;2.37;38.58
27685;BME280;46113;50.130;8.526;2023-04-04T17:38:08;99834.38;;;2.49;37.72
27685;BME280;46113;50.130;8.526;2023-04-04T17:40:34;99832.03;;;2.30;40.97
27685;BME280;46113;50.130;8.526;2023-04-04T17:43:01;99833.97;;;2.15;42.29
27685;BME280;46113;50.130;8.526;2023-04-04T17:45:28;99833.84;;;2.23;39.74
27685;BME280;46113;50.130;8.526;2023-04-04T17:47:55;99831.31;;;2.20;39.88
27685;BME280;46113;50.130;8.526;2023-04-04T17:50:21;99832.97;;;2.24;38.72
27685;BME280;46113;50.130;8.526;2023-04-04T17:52:48;99832.25;;;2.13;41.27
27685;BME280;46113;50.130;8.526;2023-04-04T17:55:15;99838.34;;;2.15;41.43
27685;BME280;46113;50.130;8.526;2023-04-04T17:57:43;99835.88;;;2.04;41.66
27685;BME280;46113;50.130;8.526;2023-04-04T18:00:11;99838.56;;;1.99;43.12
27685;BME280;46113;50.130;8.526;2023-04-04T18:02:38;99836.91;;;1.89;40.76
27685;BME280;46113;50.130;8.526;2023-04-04T18:05:04;99837.81;;;1.88;40.23
27685;BME280;46113;50.130;8.526;2023-04-04T18:07:32;99830.88;;;1.87;42.56
27685;BME280;46113;50.130;8.526;2023-04-04T18:09:58;99834.47;;;1.78;43.82
27685;BME280;46113;50.130;8.526;2023-04-04T18:12:25;99840.94;;;1.44;46.98
27685;BME280;46113;50.130;8.526;2023-04-04T18:14:55;99844.38;;;1.48;46.41
27685;BME280;46113;50.130;8.526;2023-04-04T18:17:22;99841.91;;;1.34;46.99
27685;BME280;46113;50.130;8.526;2023-04-04T18:19:51;99844.53;;;1.31;47.64
27685;BME280;46113;50.130;8.526;2023-04-04T18:22:20;99846.34;;;1.24;48.22
27685;BME280;46113;50.130;8.526;2023-04-04T18:24:47;99846.41;;;1.18;48.52
27685;BME280;46113;50.130;8.526;2023-04-04T18:27:14;99851.75;;;1.04;48.38
27685;BME280;46113;50.130;8.526;2023-04-04T18:29:41;99850.97;;;0.91;48.94
27685;BME280;46113;50.130;8.526;2023-04-04T18:32:08;99850.34;;;0.54;50.01
27685;BME280;46113;50.130;8.526;2023-04-04T18:34:35;99853.97;;;0.30;50.80
27685;BME280;46113;50.130;8.526;2023-04-04T18:37:01;99856.69;;;0.14;51.53
27685;BME280;46113;50.130;8.526;2023-04-04T18:39:28;99852.34;;;0.13;51.79
27685;BME280;46113;50.130;8.526;2023-04-04T18:41:54;99860.13;;;0.21;51.99
27685;BME280;46113;50.130;8.526;2023-04-04T18:44:22;99858.44;;;0.06;52.56
27685;BME280;46113;50.130;8.526;2023-04-04T18:46:48;99853.19;;;0.14;52.43
27685;BME280;46113;50.130;8.526;2023-04-04T18:49:15;99862.72;;;0.16;52.10
27685;BME280;46113;50.130;8.526;2023-04-04T18:51:41;99861.88;;;0.16;52.98
27685;BME280;46113;50.130;8.526;2023-04-04T18:54:08;99861.91;;;0.08;53.26
27685;BME280;46113;50.130;8.526;2023-04-04T18:56:34;99863.69;;;0.01;54.07
27685;BME280;46113;50.130;8.526;2023-04-04T18:59:04;99864.56;;;-0.04;52.71
27685;BME280;46113;50.130;8.526;2023-04-04T19:01:30;99870.66;;;-0.16;53.47
27685;BME280;46113;50.130;8.526;2023-04-04T19:04:00;99875.03;;;-0.20;53.85
27685;BME280;46113;50.130;8.526;2023-04-04T19:06:29;99875.91;;;-0.24;54.12
27685;BME280;46113;50.130;8.526;2023-04-04T19:08:59;99876.84;;;-0.52;56.09
27685;BME280;46113;50.130;8.526;2023-04-04T19:11:32;99872.50;;;-0.54;56.00
27685;BME280;46113;50.130;8.526;2023-04-04T19:13:58;99882.97;;;-0.64;55.63
27685;BME280;46113;50.130;8.526;2023-04-04T19:16:25;99880.34;;;-0.68;56.51
27685;BME280;46113;50.130;8.526;2023-04-04T19:18:52;99886.44;;;-0.76;56.95
27685;BME280;46113;50.130;8.526;2023-04-04T19:21:18;99880.38;;;-0.81;57.00
27685;BME280;46113;50.130;8.526;2023-04-04T19:23:45;99875.19;;;-0.90;56.53
27685;BME280;46113;50.130;8.526;2023-04-04T19:26:12;99874.31;;;-0.92;55.79
27685;BME280;46113;50.130;8.526;2023-04-04T19:28:43;99872.59;;;-0.90;55.72
27685;BME280;46113;50.130;8.526;2023-04-04T19:31:19;99880.38;;;-0.96;56.08
27685;BME280;46113;50.130;8.526;2023-04-04T19:33:47;99862.19;;;-1.06;57.28
27685;BME280;46113;50.130;8.526;2023-04-04T19:36:16;99866.53;;;-1.03;57.23
27685;BME280;46113;50.130;8.526;2023-04-04T19:38:45;99868.25;;;-1.18;57.55
27685;BME280;46113;50.130;8.526;2023-04-04T19:43:44;99865.66;;;-1.19;58.04
27685;BME280;46113;50.130;8.526;2023-04-04T19:46:23;99870.88;;;-1.30;57.77
27685;BME280;46113;50.130;8.526;2023-04-04T19:48:56;99867.38;;;-1.26;57.62
27685;BME280;46113;50.130;8.526;2023-04-04T19:53:51;99859.56;;;-1.35;58.22
27685;BME280;46113;50.130;8.526;2023-04-04T19:56:20;99857.84;;;-1.46;58.22
27685;BME280;46113;50.130;8.526;2023-04-04T19:58:52;99862.16;;;-1.49;57.81
27685;BME280;46113;50.130;8.526;2023-04-04T20:01:22;99863.03;;;-1.57;58.43
27685;BME280;46113;50.130;8.526;2023-04-04T20:03:48;99864.75;;;-1.49;59.90
27685;BME280;46113;50.130;8.526;2023-04-04T20:06:26;99858.69;;;-1.54;59.03
27685;BME280;46113;50.130;8.526;2023-04-04T20:08:55;99857.84;;;-1.57;60.09
27685;BME280;46113;50.130;8.526;2023-04-04T20:11:33;99860.41;;;-1.53;59.05
27685;BME280;46113;50.130;8.526;2023-04-04T20:14:02;99863.91;;;-1.58;59.36
27685;BME280;46113;50.130;8.526;2023-04-04T20:16:30;99860.41;;;-1.61;59.36
27685;BME280;46113;50.130;8.526;2023-04-04T20:18:58;99864.75;;;-1.68;59.89